sensor_id;sensor_type;location;lat;lon;timestamp;P1;durP1;ratioP1;P2;durP2;ratioP2
4232;SDS011;2130;48.472;11.934;2024-02-14T00:01:42;17.03;;;1.43;;
4232;SDS011;2130;48.472;11.934;2024-02-14T00:04:11;12.50;;;1.93;;
4232;SDS011;2130;48.472;11.934;2024-02-14T00:06:41;12.63;;;2.00;;
4232;SDS011;2130;48.472;11.934;2024-02-14T00:09:10;12.10;;;1.60;;
4232;SDS011;2130;48.472;11.934;2024-02-14T00:11:41;11.50;;;1.30;;
4232;SDS011;2130;48.472;11.934;2024-02-14T00:14:10;12.10;;;1.60;;
4232;SDS011;2130;48.472;11.934;2024-02-14T00:16:40;17.93;;;1.87;;
4232;SDS011;2130;48.472;11.934;2024-02-14T00:19:10;13.33;;;1.93;;
4232;SDS011;2130;48.472;11.934;2024-02-14T00:21:39;15.77;;;2.40;;
4232;SDS011;2130;48.472;11.934;2024-02-14T00:24:09;13.97;;;2.20;;
4232;SDS011;2130;48.472;11.934;2024-02-14T00:26:39;16.77;;;3.63;;
4232;SDS011;2130;48.472;11.934;2024-02-14T00:29:09;13.10;;;2.07;;
4232;SDS011;2130;48.472;11.934;2024-02-14T00:31:39;12.67;;;1.70;;
4232;SDS011;2130;48.472;11.934;2024-02-14T00:34:14;13.67;;;2.37;;
4232;SDS011;2130;48.472;11.934;2024-02-14T00:36:44;12.00;;;1.50;;
4232;SDS011;2130;48.472;11.934;2024-02-14T00:39:14;12.00;;;1.60;;
4232;SDS011;2130;48.472;11.934;2024-02-14T00:41:47;13.83;;;2.10;;
4232;SDS011;2130;48.472;11.934;2024-02-14T00:44:17;11.90;;;1.57;;
4232;SDS011;2130;48.472;11.934;2024-02-14T00:46:46;11.60;;;1.47;;
4232;SDS011;2130;48.472;11.934;2024-02-14T00:49:17;12.90;;;2.13;;
4232;SDS011;2130;48.472;11.934;2024-02-14T00:51:47;12.47;;;1.83;;
4232;SDS011;2130;48.472;11.934;2024-02-14T00:54:17;13.13;;;1.80;;
4232;SDS011;2130;48.472;11.934;2024-02-14T00:56:49;12.37;;;1.90;;
4232;SDS011;2130;48.472;11.934;2024-02-14T00:59:19;12.77;;;2.20;;
4232;SDS011;2130;48.472;11.934;2024-02-14T01:01:48;14.10;;;1.90;;
4232;SDS011;2130;48.472;11.934;2024-02-14T01:04:17;13.57;;;2.07;;
4232;SDS011;2130;48.472;11.934;2024-02-14T01:06:46;13.03;;;2.10;;
4232;SDS011;2130;48.472;11.934;2024-02-14T01:09:18;12.93;;;1.90;;
4232;SDS011;2130;48.472;11.934;2024-02-14T01:11:49;12.60;;;1.60;;
4232;SDS011;2130;48.472;11.934;2024-02-14T01:14:19;12.23;;;1.73;;
4232;SDS011;2130;48.472;11.934;2024-02-14T01:16:50;16.23;;;2.53;;
4232;SDS011;2130;48.472;11.934;2024-02-14T01:19:21;13.37;;;2.33;;
4232;SDS011;2130;48.472;11.934;2024-02-14T01:21:52;14.40;;;2.00;;
4232;SDS011;2130;48.472;11.934;2024-02-14T01:24:22;12.83;;;1.73;;
4232;SDS011;2130;48.472;11.934;2024-02-14T01:26:59;12.77;;;1.67;;
4232;SDS011;2130;48.472;11.934;2024-02-14T01:29:31;14.20;;;2.20;;
4232;SDS011;2130;48.472;11.934;2024-02-14T01:32:00;13.63;;;1.50;;
4232;SDS011;2130;48.472;11.934;2024-02-14T01:34:31;12.40;;;1.77;;
4232;SDS011;2130;48.472;11.934;2024-02-14T01:37:01;12.73;;;1.90;;
4232;SDS011;2130;48.472;11.934;2024-02-14T01:39:31;14.30;;;2.40;;
4232;SDS011;2130;48.472;11.934;2024-02-14T01:42:02;12.73;;;1.90;;
4232;SDS011;2130;48.472;11.934;2024-02-14T01:44:34;13.43;;;2.00;;
4232;SDS011;2130;48.472;11.934;2024-02-14T01:47:04;13.53;;;1.70;;
4232;SDS011;2130;48.472;11.934;2024-02-14T01:49:33;13.20;;;1.90;;
4232;SDS011;2130;48.472;11.934;2024-02-14T01:52:03;14.43;;;1.60;;
4232;SDS011;2130;48.472;11.934;2024-02-14T01:54:33;12.03;;;1.50;;
4232;SDS011;2130;48.472;11.934;2024-02-14T01:57:04;14.07;;;1.67;;
4232;SDS011;2130;48.472;11.934;2024-02-14T01:59:33;12.50;;;1.80;;
4232;SDS011;2130;48.472;11.934;2024-02-14T02:02:04;12.97;;;1.90;;
4232;SDS011;2130;48.472;11.934;2024-02-14T02:04:35;13.20;;;1.40;;
4232;SDS011;2130;48.472;11.934;2024-02-14T02:07:06;13.50;;;1.60;;
4232;SDS011;2130;48.472;11.934;2024-02-14T02:09:36;12.97;;;1.83;;
4232;SDS011;2130;48.472;11.934;2024-02-14T02:12:07;12.23;;;1.40;;
4232;SDS011;2130;48.472;11.934;2024-02-14T02:14:57;12.90;;;1.53;;
4232;SDS011;2130;48.472;11.934;2024-02-14T02:17:46;12.50;;;1.50;;
4232;SDS011;2130;48.472;11.934;2024-02-14T02:20:39;13.83;;;1.70;;
4232;SDS011;2130;48.472;11.934;2024-02-14T02:23:13;13.17;;;1.97;;
4232;SDS011;2130;48.472;11.934;2024-02-14T02:25:45;13.87;;;1.73;;
4232;SDS011;2130;48.472;11.934;2024-02-14T02:28:34;12.93;;;1.67;;
4232;SDS011;2130;48.472;11.934;2024-02-14T02:31:03;13.67;;;1.70;;
4232;SDS011;2130;48.472;11.934;2024-02-14T02:33:33;21.50;;;2.10;;
4232;SDS011;2130;48.472;11.934;2024-02-14T02:36:03;12.40;;;1.67;;
4232;SDS011;2130;48.472;11.934;2024-02-14T02:38:56;13.63;;;1.63;;
4232;SDS011;2130;48.472;11.934;2024-02-14T02:41:45;12.90;;;1.50;;
4232;SDS011;2130;48.472;11.934;2024-02-14T02:44:55;13.63;;;1.70;;
4232;SDS011;2130;48.472;11.934;2024-02-14T02:47:47;12.43;;;1.30;;
4232;SDS011;2130;48.472;11.934;2024-02-14T02:50:39;13.23;;;1.67;;
4232;SDS011;2130;48.472;11.934;2024-02-14T02:53:28;12.70;;;1.73;;
4232;SDS011;2130;48.472;11.934;2024-02-14T02:56:19;13.10;;;1.60;;
4232;SDS011;2130;48.472;11.934;2024-02-14T02:58:49;13.47;;;1.90;;
4232;SDS011;2130;48.472;11.934;2024-02-14T03:01:19;12.83;;;1.67;;
4232;SDS011;2130;48.472;11.934;2024-02-14T03:04:12;14.87;;;1.90;;
4232;SDS011;2130;48.472;11.934;2024-02-14T03:07:01;13.17;;;1.20;;
4232;SDS011;2130;48.472;11.934;2024-02-14T03:09:55;13.97;;;1.30;;
4232;SDS011;2130;48.472;11.934;2024-02-14T03:12:46;15.60;;;1.70;;
4232;SDS011;2130;48.472;11.934;2024-02-14T03:15:36;12.77;;;1.40;;
4232;SDS011;2130;48.472;11.934;2024-02-14T03:18:05;13.67;;;2.10;;
4232;SDS011;2130;48.472;11.934;2024-02-14T03:20:37;12.60;;;1.40;;
4232;SDS011;2130;48.472;11.934;2024-02-14T03:23:07;12.97;;;1.50;;
4232;SDS011;2130;48.472;11.934;2024-02-14T03:25:38;12.50;;;1.60;;
4232;SDS011;2130;48.472;11.934;2024-02-14T03:28:09;13.87;;;1.30;;
4232;SDS011;2130;48.472;11.934;2024-02-14T03:30:40;12.67;;;1.70;;
4232;SDS011;2130;48.472;11.934;2024-02-14T03:33:09;11.80;;;1.50;;
4232;SDS011;2130;48.472;11.934;2024-02-14T03:35:40;12.17;;;1.53;;
4232;SDS011;2130;48.472;11.934;2024-02-14T03:38:10;12.50;;;1.73;;
4232;SDS011;2130;48.472;11.934;2024-02-14T03:40:42;12.50;;;1.53;;
4232;SDS011;2130;48.472;11.934;2024-02-14T03:43:15;12.40;;;1.47;;
4232;SDS011;2130;48.472;11.934;2024-02-14T03:45:45;12.83;;;1.27;;
4232;SDS011;2130;48.472;11.934;2024-02-14T03:48:15;11.73;;;1.50;;
4232;SDS011;2130;48.472;11.934;2024-02-14T03:50:45;12.57;;;1.63;;
4232;SDS011;2130;48.472;11.934;2024-02-14T03:53:14;12.87;;;1.83;;
4232;SDS011;2130;48.472;11.934;2024-02-14T03:55:45;15.83;;;2.13;;
4232;SDS011;2130;48.472;11.934;2024-02-14T03:58:15;12.50;;;1.33;;
4232;SDS011;2130;48.472;11.934;2024-02-14T04:00:50;11.63;;;1.30;;
4232;SDS011;2130;48.472;11.934;2024-02-14T04:03:19;12.20;;;1.53;;
4232;SDS011;2130;48.472;11.934;2024-02-14T04:05:50;12.30;;;1.60;;
4232;SDS011;2130;48.472;11.934;2024-02-14T04:08:20;13.50;;;1.53;;
4232;SDS011;2130;48.472;11.934;2024-02-14T04:10:49;14.30;;;2.00;;
4232;SDS011;2130;48.472;11.934;2024-02-14T04:13:20;13.13;;;1.47;;
4232;SDS011;2130;48.472;11.934;2024-02-14T04:15:50;12.87;;;1.63;;
4232;SDS011;2130;48.472;11.934;2024-02-14T04:18:24;12.30;;;1.90;;
4232;SDS011;2130;48.472;11.934;2024-02-14T04:20:54;12.00;;;1.50;;
4232;SDS011;2130;48.472;11.934;2024-02-14T04:23:23;11.93;;;1.50;;
4232;SDS011;2130;48.472;11.934;2024-02-14T04:25:55;13.63;;;1.40;;
4232;SDS011;2130;48.472;11.934;2024-02-14T04:28:26;13.53;;;1.50;;
4232;SDS011;2130;48.472;11.934;2024-02-14T04:30:54;14.00;;;1.60;;
4232;SDS011;2130;48.472;11.934;2024-02-14T04:33:30;12.07;;;1.50;;
4232;SDS011;2130;48.472;11.934;2024-02-14T04:36:01;12.60;;;1.67;;
4232;SDS011;2130;48.472;11.934;2024-02-14T04:38:33;13.50;;;1.63;;
4232;SDS011;2130;48.472;11.934;2024-02-14T04:41:03;12.20;;;1.57;;
4232;SDS011;2130;48.472;11.934;2024-02-14T04:43:35;13.37;;;1.80;;
4232;SDS011;2130;48.472;11.934;2024-02-14T04:46:04;13.33;;;1.73;;
4232;SDS011;2130;48.472;11.934;2024-02-14T04:48:35;12.40;;;1.60;;
4232;SDS011;2130;48.472;11.934;2024-02-14T04:51:05;12.07;;;1.40;;
4232;SDS011;2130;48.472;11.934;2024-02-14T04:53:34;12.60;;;1.93;;
4232;SDS011;2130;48.472;11.934;2024-02-14T04:56:04;13.03;;;1.70;;
4232;SDS011;2130;48.472;11.934;2024-02-14T04:58:34;12.57;;;1.90;;
4232;SDS011;2130;48.472;11.934;2024-02-14T05:01:03;13.00;;;2.00;;
4232;SDS011;2130;48.472;11.934;2024-02-14T05:03:33;12.50;;;1.73;;
4232;SDS011;2130;48.472;11.934;2024-02-14T05:06:05;12.47;;;2.00;;
4232;SDS011;2130;48.472;11.934;2024-02-14T05:08:34;13.13;;;1.50;;
4232;SDS011;2130;48.472;11.934;2024-02-14T05:11:04;12.33;;;1.40;;
4232;SDS011;2130;48.472;11.934;2024-02-14T05:13:33;12.00;;;1.57;;
4232;SDS011;2130;48.472;11.934;2024-02-14T05:16:05;12.17;;;1.60;;
4232;SDS011;2130;48.472;11.934;2024-02-14T05:18:36;14.97;;;2.00;;
4232;SDS011;2130;48.472;11.934;2024-02-14T05:21:06;13.37;;;1.70;;
4232;SDS011;2130;48.472;11.934;2024-02-14T05:23:35;13.40;;;2.10;;
4232;SDS011;2130;48.472;11.934;2024-02-14T05:26:05;15.80;;;2.60;;
4232;SDS011;2130;48.472;11.934;2024-02-14T05:28:36;12.27;;;1.97;;
4232;SDS011;2130;48.472;11.934;2024-02-14T05:31:06;14.57;;;2.77;;
4232;SDS011;2130;48.472;11.934;2024-02-14T05:33:40;16.07;;;2.53;;
4232;SDS011;2130;48.472;11.934;2024-02-14T05:36:09;13.90;;;1.90;;
4232;SDS011;2130;48.472;11.934;2024-02-14T05:38:39;14.27;;;1.97;;
4232;SDS011;2130;48.472;11.934;2024-02-14T05:41:09;12.20;;;1.70;;
4232;SDS011;2130;48.472;11.934;2024-02-14T05:43:41;12.00;;;1.73;;
4232;SDS011;2130;48.472;11.934;2024-02-14T05:46:10;12.20;;;1.70;;
4232;SDS011;2130;48.472;11.934;2024-02-14T05:48:38;12.00;;;1.30;;
4232;SDS011;2130;48.472;11.934;2024-02-14T05:51:10;13.60;;;1.40;;
4232;SDS011;2130;48.472;11.934;2024-02-14T05:53:39;12.27;;;1.40;;
4232;SDS011;2130;48.472;11.934;2024-02-14T05:56:08;12.40;;;1.70;;
4232;SDS011;2130;48.472;11.934;2024-02-14T05:58:37;11.73;;;1.20;;
4232;SDS011;2130;48.472;11.934;2024-02-14T06:01:08;12.97;;;1.60;;
4232;SDS011;2130;48.472;11.934;2024-02-14T06:03:37;12.77;;;1.73;;
4232;SDS011;2130;48.472;11.934;2024-02-14T06:06:06;13.53;;;2.33;;
4232;SDS011;2130;48.472;11.934;2024-02-14T06:08:37;11.93;;;1.70;;
4232;SDS011;2130;48.472;11.934;2024-02-14T06:11:06;12.40;;;1.70;;
4232;SDS011;2130;48.472;11.934;2024-02-14T06:13:35;13.13;;;2.10;;
4232;SDS011;2130;48.472;11.934;2024-02-14T06:16:04;15.13;;;2.43;;
4232;SDS011;2130;48.472;11.934;2024-02-14T06:18:37;11.70;;;1.47;;
4232;SDS011;2130;48.472;11.934;2024-02-14T06:21:07;11.70;;;1.83;;
4232;SDS011;2130;48.472;11.934;2024-02-14T06:23:38;12.50;;;1.83;;
4232;SDS011;2130;48.472;11.934;2024-02-14T06:26:07;12.37;;;1.60;;
4232;SDS011;2130;48.472;11.934;2024-02-14T06:28:37;12.40;;;1.83;;
4232;SDS011;2130;48.472;11.934;2024-02-14T06:31:05;13.30;;;1.60;;
4232;SDS011;2130;48.472;11.934;2024-02-14T06:33:35;12.03;;;1.73;;
4232;SDS011;2130;48.472;11.934;2024-02-14T06:36:06;11.97;;;1.70;;
4232;SDS011;2130;48.472;11.934;2024-02-14T06:38:36;12.70;;;1.70;;
4232;SDS011;2130;48.472;11.934;2024-02-14T06:41:06;12.87;;;1.70;;
4232;SDS011;2130;48.472;11.934;2024-02-14T06:43:36;12.23;;;1.60;;
4232;SDS011;2130;48.472;11.934;2024-02-14T06:46:06;13.10;;;1.93;;
4232;SDS011;2130;48.472;11.934;2024-02-14T06:48:43;16.20;;;2.13;;
4232;SDS011;2130;48.472;11.934;2024-02-14T06:51:12;12.00;;;1.80;;
4232;SDS011;2130;48.472;11.934;2024-02-14T06:53:42;13.03;;;1.87;;
4232;SDS011;2130;48.472;11.934;2024-02-14T06:56:11;12.23;;;1.97;;
4232;SDS011;2130;48.472;11.934;2024-02-14T06:58:40;12.80;;;1.73;;
4232;SDS011;2130;48.472;11.934;2024-02-14T07:01:10;14.23;;;1.90;;
4232;SDS011;2130;48.472;11.934;2024-02-14T07:03:44;12.00;;;1.90;;
4232;SDS011;2130;48.472;11.934;2024-02-14T07:06:13;12.87;;;2.03;;
4232;SDS011;2130;48.472;11.934;2024-02-14T07:08:43;12.07;;;1.63;;
4232;SDS011;2130;48.472;11.934;2024-02-14T07:11:15;12.60;;;2.10;;
4232;SDS011;2130;48.472;11.934;2024-02-14T07:13:44;11.83;;;1.80;;
4232;SDS011;2130;48.472;11.934;2024-02-14T07:16:15;16.80;;;2.17;;
4232;SDS011;2130;48.472;11.934;2024-02-14T07:18:46;13.20;;;2.40;;
4232;SDS011;2130;48.472;11.934;2024-02-14T07:21:17;12.13;;;2.07;;
4232;SDS011;2130;48.472;11.934;2024-02-14T07:23:48;11.70;;;1.73;;
4232;SDS011;2130;48.472;11.934;2024-02-14T07:26:17;11.07;;;0.90;;
4232;SDS011;2130;48.472;11.934;2024-02-14T07:28:46;12.77;;;1.60;;
4232;SDS011;2130;48.472;11.934;2024-02-14T07:31:16;12.83;;;2.00;;
4232;SDS011;2130;48.472;11.934;2024-02-14T07:33:50;12.83;;;1.70;;
4232;SDS011;2130;48.472;11.934;2024-02-14T07:36:43;11.97;;;1.67;;
4232;SDS011;2130;48.472;11.934;2024-02-14T07:39:13;10.80;;;1.57;;
4232;SDS011;2130;48.472;11.934;2024-02-14T07:41:46;10.50;;;1.40;;
4232;SDS011;2130;48.472;11.934;2024-02-14T07:44:37;11.27;;;1.17;;
4232;SDS011;2130;48.472;11.934;2024-02-14T07:47:06;11.40;;;1.50;;
4232;SDS011;2130;48.472;11.934;2024-02-14T07:49:38;11.20;;;1.73;;
4232;SDS011;2130;48.472;11.934;2024-02-14T07:52:07;10.97;;;1.73;;
4232;SDS011;2130;48.472;11.934;2024-02-14T07:54:37;12.93;;;1.70;;
4232;SDS011;2130;48.472;11.934;2024-02-14T07:57:07;11.20;;;1.57;;
4232;SDS011;2130;48.472;11.934;2024-02-14T07:59:36;11.80;;;1.37;;
4232;SDS011;2130;48.472;11.934;2024-02-14T08:02:05;12.33;;;1.70;;
4232;SDS011;2130;48.472;11.934;2024-02-14T08:04:35;11.60;;;1.83;;
4232;SDS011;2130;48.472;11.934;2024-02-14T08:07:05;11.40;;;1.63;;
4232;SDS011;2130;48.472;11.934;2024-02-14T08:09:35;10.80;;;1.57;;
4232;SDS011;2130;48.472;11.934;2024-02-14T08:12:06;10.50;;;1.50;;
4232;SDS011;2130;48.472;11.934;2024-02-14T08:14:35;10.70;;;1.47;;
4232;SDS011;2130;48.472;11.934;2024-02-14T08:17:07;10.10;;;1.30;;
4232;SDS011;2130;48.472;11.934;2024-02-14T08:19:37;10.93;;;1.43;;
4232;SDS011;2130;48.472;11.934;2024-02-14T08:22:09;11.43;;;1.63;;
4232;SDS011;2130;48.472;11.934;2024-02-14T08:24:39;10.50;;;1.40;;
4232;SDS011;2130;48.472;11.934;2024-02-14T08:27:09;12.67;;;1.90;;
4232;SDS011;2130;48.472;11.934;2024-02-14T08:29:39;10.80;;;1.50;;
4232;SDS011;2130;48.472;11.934;2024-02-14T08:32:10;11.00;;;1.47;;
4232;SDS011;2130;48.472;11.934;2024-02-14T08:34:39;11.03;;;1.40;;
4232;SDS011;2130;48.472;11.934;2024-02-14T08:37:10;12.37;;;1.83;;
4232;SDS011;2130;48.472;11.934;2024-02-14T08:39:39;9.40;;;1.20;;
4232;SDS011;2130;48.472;11.934;2024-02-14T08:42:10;9.20;;;1.37;;
4232;SDS011;2130;48.472;11.934;2024-02-14T08:44:40;10.10;;;1.50;;
4232;SDS011;2130;48.472;11.934;2024-02-14T08:47:09;9.33;;;1.47;;
4232;SDS011;2130;48.472;11.934;2024-02-14T08:49:40;9.27;;;1.10;;
4232;SDS011;2130;48.472;11.934;2024-02-14T08:52:11;9.43;;;1.20;;
4232;SDS011;2130;48.472;11.934;2024-02-14T08:54:42;9.90;;;1.50;;
4232;SDS011;2130;48.472;11.934;2024-02-14T08:57:12;10.57;;;1.30;;
4232;SDS011;2130;48.472;11.934;2024-02-14T08:59:41;9.17;;;1.20;;
4232;SDS011;2130;48.472;11.934;2024-02-14T09:02:14;9.20;;;1.20;;
4232;SDS011;2130;48.472;11.934;2024-02-14T09:04:44;9.67;;;1.50;;
4232;SDS011;2130;48.472;11.934;2024-02-14T09:07:15;10.10;;;1.30;;
4232;SDS011;2130;48.472;11.934;2024-02-14T09:09:45;10.10;;;1.50;;
4232;SDS011;2130;48.472;11.934;2024-02-14T09:12:14;10.20;;;1.90;;
4232;SDS011;2130;48.472;11.934;2024-02-14T09:14:43;9.83;;;1.70;;
4232;SDS011;2130;48.472;11.934;2024-02-14T09:17:13;9.30;;;1.30;;
4232;SDS011;2130;48.472;11.934;2024-02-14T09:19:42;8.77;;;1.40;;
4232;SDS011;2130;48.472;11.934;2024-02-14T09:22:12;9.73;;;1.20;;
4232;SDS011;2130;48.472;11.934;2024-02-14T09:24:50;10.23;;;1.87;;
4232;SDS011;2130;48.472;11.934;2024-02-14T09:27:20;8.43;;;1.17;;
4232;SDS011;2130;48.472;11.934;2024-02-14T09:29:50;8.80;;;1.30;;
4232;SDS011;2130;48.472;11.934;2024-02-14T09:32:19;10.30;;;1.67;;
4232;SDS011;2130;48.472;11.934;2024-02-14T09:34:48;9.17;;;1.33;;
4232;SDS011;2130;48.472;11.934;2024-02-14T09:37:18;8.83;;;1.27;;
4232;SDS011;2130;48.472;11.934;2024-02-14T09:39:47;9.47;;;1.40;;
4232;SDS011;2130;48.472;11.934;2024-02-14T09:42:19;8.07;;;1.10;;
4232;SDS011;2130;48.472;11.934;2024-02-14T09:44:52;9.50;;;1.63;;
4232;SDS011;2130;48.472;11.934;2024-02-14T09:47:23;9.10;;;1.23;;
4232;SDS011;2130;48.472;11.934;2024-02-14T09:49:53;8.13;;;1.27;;
4232;SDS011;2130;48.472;11.934;2024-02-14T09:52:22;7.70;;;1.30;;
4232;SDS011;2130;48.472;11.934;2024-02-14T09:54:52;19.27;;;1.70;;
4232;SDS011;2130;48.472;11.934;2024-02-14T09:57:25;8.80;;;1.33;;
4232;SDS011;2130;48.472;11.934;2024-02-14T09:59:56;9.63;;;1.40;;
4232;SDS011;2130;48.472;11.934;2024-02-14T10:02:26;7.50;;;1.40;;
4232;SDS011;2130;48.472;11.934;2024-02-14T10:04:57;8.73;;;1.37;;
4232;SDS011;2130;48.472;11.934;2024-02-14T10:07:27;8.30;;;1.63;;
4232;SDS011;2130;48.472;11.934;2024-02-14T10:10:05;7.67;;;1.27;;
4232;SDS011;2130;48.472;11.934;2024-02-14T10:12:36;9.40;;;1.20;;
4232;SDS011;2130;48.472;11.934;2024-02-14T10:15:08;7.30;;;1.13;;
4232;SDS011;2130;48.472;11.934;2024-02-14T10:17:38;8.73;;;1.27;;
4232;SDS011;2130;48.472;11.934;2024-02-14T10:20:10;7.13;;;1.20;;
4232;SDS011;2130;48.472;11.934;2024-02-14T10:22:45;7.43;;;1.17;;
4232;SDS011;2130;48.472;11.934;2024-02-14T10:25:15;9.10;;;1.93;;
4232;SDS011;2130;48.472;11.934;2024-02-14T10:27:48;7.53;;;1.40;;
4232;SDS011;2130;48.472;11.934;2024-02-14T10:30:18;8.10;;;1.40;;
4232;SDS011;2130;48.472;11.934;2024-02-14T10:32:48;9.07;;;1.60;;
4232;SDS011;2130;48.472;11.934;2024-02-14T10:35:18;7.80;;;1.50;;
4232;SDS011;2130;48.472;11.934;2024-02-14T10:37:50;7.93;;;1.30;;
4232;SDS011;2130;48.472;11.934;2024-02-14T10:40:21;7.00;;;1.20;;
4232;SDS011;2130;48.472;11.934;2024-02-14T10:42:52;7.20;;;1.17;;
4232;SDS011;2130;48.472;11.934;2024-02-14T10:45:21;7.23;;;1.10;;
4232;SDS011;2130;48.472;11.934;2024-02-14T10:47:51;7.50;;;1.23;;
4232;SDS011;2130;48.472;11.934;2024-02-14T10:50:22;8.50;;;1.23;;
4232;SDS011;2130;48.472;11.934;2024-02-14T10:52:52;6.30;;;1.00;;
4232;SDS011;2130;48.472;11.934;2024-02-14T10:55:23;10.10;;;1.07;;
4232;SDS011;2130;48.472;11.934;2024-02-14T10:57:55;6.70;;;1.03;;
4232;SDS011;2130;48.472;11.934;2024-02-14T11:00:25;7.17;;;1.30;;
4232;SDS011;2130;48.472;11.934;2024-02-14T11:02:55;7.90;;;1.10;;
4232;SDS011;2130;48.472;11.934;2024-02-14T11:05:24;6.47;;;1.07;;
4232;SDS011;2130;48.472;11.934;2024-02-14T11:07:55;7.10;;;1.43;;
4232;SDS011;2130;48.472;11.934;2024-02-14T11:10:25;6.80;;;1.30;;
4232;SDS011;2130;48.472;11.934;2024-02-14T11:12:58;7.20;;;0.90;;
4232;SDS011;2130;48.472;11.934;2024-02-14T11:15:29;6.13;;;1.17;;
4232;SDS011;2130;48.472;11.934;2024-02-14T11:18:04;7.20;;;1.30;;
4232;SDS011;2130;48.472;11.934;2024-02-14T11:20:35;6.50;;;1.00;;
4232;SDS011;2130;48.472;11.934;2024-02-14T11:23:08;7.63;;;1.20;;
4232;SDS011;2130;48.472;11.934;2024-02-14T11:25:39;6.97;;;1.00;;
4232;SDS011;2130;48.472;11.934;2024-02-14T11:28:16;7.63;;;1.47;;
4232;SDS011;2130;48.472;11.934;2024-02-14T11:30:47;6.37;;;1.27;;
4232;SDS011;2130;48.472;11.934;2024-02-14T11:33:18;7.00;;;1.43;;
4232;SDS011;2130;48.472;11.934;2024-02-14T11:35:50;6.83;;;1.10;;
4232;SDS011;2130;48.472;11.934;2024-02-14T11:38:20;6.23;;;1.10;;
4232;SDS011;2130;48.472;11.934;2024-02-14T11:40:53;7.27;;;1.50;;
4232;SDS011;2130;48.472;11.934;2024-02-14T11:43:25;5.97;;;0.90;;
4232;SDS011;2130;48.472;11.934;2024-02-14T11:45:54;6.10;;;1.00;;
4232;SDS011;2130;48.472;11.934;2024-02-14T11:48:23;6.17;;;1.00;;
4232;SDS011;2130;48.472;11.934;2024-02-14T11:50:53;5.87;;;0.93;;
4232;SDS011;2130;48.472;11.934;2024-02-14T11:53:24;7.13;;;1.03;;
4232;SDS011;2130;48.472;11.934;2024-02-14T11:55:55;5.13;;;1.03;;
4232;SDS011;2130;48.472;11.934;2024-02-14T11:58:26;6.20;;;0.97;;
4232;SDS011;2130;48.472;11.934;2024-02-14T12:00:57;5.27;;;0.80;;
4232;SDS011;2130;48.472;11.934;2024-02-14T12:03:27;5.13;;;0.90;;
4232;SDS011;2130;48.472;11.934;2024-02-14T12:05:59;7.63;;;1.10;;
4232;SDS011;2130;48.472;11.934;2024-02-14T12:08:29;5.73;;;1.00;;
4232;SDS011;2130;48.472;11.934;2024-02-14T12:10:58;4.90;;;0.80;;
4232;SDS011;2130;48.472;11.934;2024-02-14T12:13:30;4.70;;;0.80;;
4232;SDS011;2130;48.472;11.934;2024-02-14T12:16:02;5.77;;;0.90;;
4232;SDS011;2130;48.472;11.934;2024-02-14T12:18:34;5.40;;;0.90;;
4232;SDS011;2130;48.472;11.934;2024-02-14T12:21:04;4.57;;;0.80;;
4232;SDS011;2130;48.472;11.934;2024-02-14T12:23:38;9.10;;;0.90;;
4232;SDS011;2130;48.472;11.934;2024-02-14T12:26:10;5.03;;;0.80;;
4232;SDS011;2130;48.472;11.934;2024-02-14T12:28:49;6.53;;;1.20;;
4232;SDS011;2130;48.472;11.934;2024-02-14T12:31:21;4.63;;;0.90;;
4232;SDS011;2130;48.472;11.934;2024-02-14T12:33:52;5.23;;;0.80;;
4232;SDS011;2130;48.472;11.934;2024-02-14T12:36:22;4.50;;;0.80;;
4232;SDS011;2130;48.472;11.934;2024-02-14T12:38:53;6.10;;;1.13;;
4232;SDS011;2130;48.472;11.934;2024-02-14T12:41:23;5.10;;;0.80;;
4232;SDS011;2130;48.472;11.934;2024-02-14T12:43:58;5.03;;;0.90;;
4232;SDS011;2130;48.472;11.934;2024-02-14T12:46:28;4.80;;;0.90;;
4232;SDS011;2130;48.472;11.934;2024-02-14T12:48:58;4.93;;;0.70;;
4232;SDS011;2130;48.472;11.934;2024-02-14T12:51:28;5.40;;;0.90;;
4232;SDS011;2130;48.472;11.934;2024-02-14T12:53:57;5.03;;;0.93;;
4232;SDS011;2130;48.472;11.934;2024-02-14T12:56:26;5.50;;;0.80;;
4232;SDS011;2130;48.472;11.934;2024-02-14T12:58:58;4.97;;;0.90;;
4232;SDS011;2130;48.472;11.934;2024-02-14T13:01:28;4.37;;;0.70;;
4232;SDS011;2130;48.472;11.934;2024-02-14T13:03:57;4.70;;;0.70;;
4232;SDS011;2130;48.472;11.934;2024-02-14T13:06:27;4.57;;;0.80;;
4232;SDS011;2130;48.472;11.934;2024-02-14T13:08:58;6.70;;;1.03;;
4232;SDS011;2130;48.472;11.934;2024-02-14T13:11:28;4.70;;;0.70;;
4232;SDS011;2130;48.472;11.934;2024-02-14T13:14:00;4.63;;;0.70;;
4232;SDS011;2130;48.472;11.934;2024-02-14T13:16:31;5.40;;;0.90;;
4232;SDS011;2130;48.472;11.934;2024-02-14T13:19:00;4.70;;;0.80;;
4232;SDS011;2130;48.472;11.934;2024-02-14T13:21:31;4.57;;;0.80;;
4232;SDS011;2130;48.472;11.934;2024-02-14T13:24:01;5.00;;;0.90;;
4232;SDS011;2130;48.472;11.934;2024-02-14T13:26:31;5.07;;;0.80;;
4232;SDS011;2130;48.472;11.934;2024-02-14T13:29:03;5.37;;;0.90;;
4232;SDS011;2130;48.472;11.934;2024-02-14T13:31:33;4.50;;;0.80;;
4232;SDS011;2130;48.472;11.934;2024-02-14T13:34:03;5.17;;;0.80;;
4232;SDS011;2130;48.472;11.934;2024-02-14T13:36:32;4.70;;;0.90;;
4232;SDS011;2130;48.472;11.934;2024-02-14T13:39:01;4.67;;;0.70;;
4232;SDS011;2130;48.472;11.934;2024-02-14T13:41:31;5.00;;;0.80;;
4232;SDS011;2130;48.472;11.934;2024-02-14T13:44:00;5.17;;;0.83;;
4232;SDS011;2130;48.472;11.934;2024-02-14T13:46:31;4.60;;;0.80;;
4232;SDS011;2130;48.472;11.934;2024-02-14T13:49:02;4.37;;;0.77;;
4232;SDS011;2130;48.472;11.934;2024-02-14T13:51:32;5.00;;;0.80;;
4232;SDS011;2130;48.472;11.934;2024-02-14T13:54:02;4.53;;;0.70;;
4232;SDS011;2130;48.472;11.934;2024-02-14T13:56:32;4.93;;;0.87;;
4232;SDS011;2130;48.472;11.934;2024-02-14T13:59:01;5.73;;;1.00;;
4232;SDS011;2130;48.472;11.934;2024-02-14T14:01:32;4.57;;;0.80;;
4232;SDS011;2130;48.472;11.934;2024-02-14T14:04:01;4.70;;;0.90;;
4232;SDS011;2130;48.472;11.934;2024-02-14T14:06:31;4.60;;;0.90;;
4232;SDS011;2130;48.472;11.934;2024-02-14T14:09:02;5.03;;;0.90;;
4232;SDS011;2130;48.472;11.934;2024-02-14T14:11:33;4.67;;;0.80;;
4232;SDS011;2130;48.472;11.934;2024-02-14T14:14:03;4.37;;;0.80;;
4232;SDS011;2130;48.472;11.934;2024-02-14T14:16:34;4.50;;;0.70;;
4232;SDS011;2130;48.472;11.934;2024-02-14T14:19:03;4.50;;;0.80;;
4232;SDS011;2130;48.472;11.934;2024-02-14T14:21:33;4.80;;;0.97;;
4232;SDS011;2130;48.472;11.934;2024-02-14T14:24:06;4.20;;;0.70;;
4232;SDS011;2130;48.472;11.934;2024-02-14T14:26:36;4.97;;;0.73;;
4232;SDS011;2130;48.472;11.934;2024-02-14T14:29:05;6.27;;;0.90;;
4232;SDS011;2130;48.472;11.934;2024-02-14T14:31:37;4.47;;;0.80;;
4232;SDS011;2130;48.472;11.934;2024-02-14T14:34:06;4.47;;;0.70;;
4232;SDS011;2130;48.472;11.934;2024-02-14T14:36:36;4.53;;;0.80;;
4232;SDS011;2130;48.472;11.934;2024-02-14T14:39:08;4.90;;;1.00;;
4232;SDS011;2130;48.472;11.934;2024-02-14T14:41:39;4.80;;;0.80;;
4232;SDS011;2130;48.472;11.934;2024-02-14T14:44:10;5.33;;;1.03;;
4232;SDS011;2130;48.472;11.934;2024-02-14T14:46:43;4.57;;;0.80;;
4232;SDS011;2130;48.472;11.934;2024-02-14T14:49:13;4.20;;;0.80;;
4232;SDS011;2130;48.472;11.934;2024-02-14T14:51:43;4.63;;;0.77;;
4232;SDS011;2130;48.472;11.934;2024-02-14T14:54:12;4.53;;;0.80;;
4232;SDS011;2130;48.472;11.934;2024-02-14T14:56:45;4.77;;;0.90;;
4232;SDS011;2130;48.472;11.934;2024-02-14T14:59:16;5.20;;;0.87;;
4232;SDS011;2130;48.472;11.934;2024-02-14T15:01:47;4.73;;;0.80;;
4232;SDS011;2130;48.472;11.934;2024-02-14T15:04:17;5.10;;;0.90;;
4232;SDS011;2130;48.472;11.934;2024-02-14T15:06:47;4.27;;;0.70;;
4232;SDS011;2130;48.472;11.934;2024-02-14T15:09:20;5.03;;;0.90;;
4232;SDS011;2130;48.472;11.934;2024-02-14T15:11:50;5.50;;;0.90;;
4232;SDS011;2130;48.472;11.934;2024-02-14T15:14:20;4.73;;;0.80;;
4232;SDS011;2130;48.472;11.934;2024-02-14T15:16:50;5.40;;;1.10;;
4232;SDS011;2130;48.472;11.934;2024-02-14T15:19:20;5.00;;;1.03;;